sensor_id;sensor_type;location;lat;lon;timestamp;pressure;altitude;pressure_sealevel;temperature;humidity
61361;BME280;47232;47.506;18.936;2022-09-01T01:22:21;98378.02;;;18.45;62.10
61361;BME280;47232;47.506;18.936;2022-09-01T03:45:03;98350.85;;;16.73;65.13
61361;BME280;47232;47.506;18.936;2022-09-01T04:16:33;98320.30;;;16.56;65.27
61361;BME280;47232;47.506;18.936;2022-09-01T06:00:08;98340.95;;;16.54;67.63
61361;BME280;47232;47.506;18.936;2022-09-01T06:17:24;98348.65;;;16.54;67.16
61361;BME280;47232;47.506;18.936;2022-09-01T07:16:36;98390.75;;;17.27;66.26
61361;BME280;47232;47.506;18.936;2022-09-01T07:50:43;98403.13;;;17.69;65.53
61361;BME280;47232;47.506;18.936;2022-09-01T09:32:52;98393.52;;;19.87;62.12
61361;BME280;47232;47.506;18.936;2022-09-01T10:01:03;98378.47;;;20.34;59.78
61361;BME280;47232;47.506;18.936;2022-09-01T10:46:40;98352.80;;;22.95;49.66
61361;BME280;47232;47.506;18.936;2022-09-01T11:57:39;98343.88;;;27.54;35.35
61361;BME280;47232;47.506;18.936;2022-09-01T12:04:33;98336.09;;;27.97;33.90
61361;BME280;47232;47.506;18.936;2022-09-01T12:11:25;98333.75;;;28.45;32.54
61361;BME280;47232;47.506;18.936;2022-09-01T12:24:23;98325.62;;;29.83;30.36
61361;BME280;47232;47.506;18.936;2022-09-01T12:26:52;98330.08;;;30.05;29.72
61361;BME280;47232;47.506;18.936;2022-09-01T12:29:21;98329.72;;;30.25;29.86
61361;BME280;47232;47.506;18.936;2022-09-01T12:31:49;98330.95;;;30.47;29.72
61361;BME280;47232;47.506;18.936;2022-09-01T12:37:49;98339.20;;;30.89;28.63
61361;BME280;47232;47.506;18.936;2022-09-01T12:40:33;98332.84;;;30.99;28.05
61361;BME280;47232;47.506;18.936;2022-09-01T12:43:02;98336.40;;;31.06;27.49
61361;BME280;47232;47.506;18.936;2022-09-01T12:45:41;98339.99;;;31.13;27.42
61361;BME280;47232;47.506;18.936;2022-09-01T12:48:23;98334.28;;;31.26;27.10
61361;BME280;47232;47.506;18.936;2022-09-01T12:50:50;98337.14;;;31.32;26.98
61361;BME280;47232;47.506;18.936;2022-09-01T12:53:22;98327.06;;;31.41;26.83
61361;BME280;47232;47.506;18.936;2022-09-01T12:56:04;98322.10;;;31.58;26.30
61361;BME280;47232;47.506;18.936;2022-09-01T12:58:48;98326.85;;;31.76;26.03
61361;BME280;47232;47.506;18.936;2022-09-01T13:01:27;98326.17;;;31.93;26.00
61361;BME280;47232;47.506;18.936;2022-09-01T13:04:29;98321.41;;;32.14;25.75
61361;BME280;47232;47.506;18.936;2022-09-01T13:07:05;98325.40;;;32.26;25.15
61361;BME280;47232;47.506;18.936;2022-09-01T13:09:32;98320.30;;;32.20;24.76
61361;BME280;47232;47.506;18.936;2022-09-01T13:12:30;98322.41;;;32.12;24.89
61361;BME280;47232;47.506;18.936;2022-09-01T13:14:55;98322.41;;;32.06;24.86
61361;BME280;47232;47.506;18.936;2022-09-01T13:17:22;98323.31;;;32.06;24.66
61361;BME280;47232;47.506;18.936;2022-09-01T13:19:48;98325.52;;;32.06;24.50
61361;BME280;47232;47.506;18.936;2022-09-01T13:22:13;98326.37;;;32.09;24.62
61361;BME280;47232;47.506;18.936;2022-09-01T13:24:39;98321.48;;;32.12;24.49
61361;BME280;47232;47.506;18.936;2022-09-01T13:27:04;98322.85;;;32.16;24.44
61361;BME280;47232;47.506;18.936;2022-09-01T13:29:33;98325.31;;;32.18;24.14
61361;BME280;47232;47.506;18.936;2022-09-01T13:31:59;98328.92;;;32.13;23.88
61361;BME280;47232;47.506;18.936;2022-09-01T13:34:26;98333.08;;;32.08;24.15
61361;BME280;47232;47.506;18.936;2022-09-01T13:36:51;98326.89;;;32.08;23.84
61361;BME280;47232;47.506;18.936;2022-09-01T13:39:17;98333.96;;;32.17;23.57
61361;BME280;47232;47.506;18.936;2022-09-01T13:41:43;98333.49;;;32.35;23.42
61361;BME280;47232;47.506;18.936;2022-09-01T13:44:08;98329.70;;;32.45;23.21
61361;BME280;47232;47.506;18.936;2022-09-01T13:46:35;98331.46;;;32.71;23.30
61361;BME280;47232;47.506;18.936;2022-09-01T13:49:02;98333.20;;;32.95;23.35
61361;BME280;47232;47.506;18.936;2022-09-01T13:51:32;98335.69;;;33.16;22.53
61361;BME280;47232;47.506;18.936;2022-09-01T13:53:59;98326.64;;;33.24;22.51
61361;BME280;47232;47.506;18.936;2022-09-01T13:56:25;98331.14;;;33.24;22.34
61361;BME280;47232;47.506;18.936;2022-09-01T13:58:50;98324.69;;;33.16;21.87
61361;BME280;47232;47.506;18.936;2022-09-01T14:01:16;98334.86;;;33.04;22.18
61361;BME280;47232;47.506;18.936;2022-09-01T14:03:42;98328.08;;;32.92;22.23
61361;BME280;47232;47.506;18.936;2022-09-01T14:06:08;98331.89;;;32.78;21.98
61361;BME280;47232;47.506;18.936;2022-09-01T14:08:34;98329.98;;;32.66;22.37
61361;BME280;47232;47.506;18.936;2022-09-01T14:11:00;98335.77;;;32.59;22.58
61361;BME280;47232;47.506;18.936;2022-09-01T14:13:27;98331.23;;;32.49;22.51
61361;BME280;47232;47.506;18.936;2022-09-01T14:15:53;98330.47;;;32.50;22.42
61361;BME280;47232;47.506;18.936;2022-09-01T14:18:19;98329.09;;;32.55;22.33
61361;BME280;47232;47.506;18.936;2022-09-01T14:20:48;98332.44;;;32.57;22.27
61361;BME280;47232;47.506;18.936;2022-09-01T14:23:17;98330.33;;;32.54;21.92
61361;BME280;47232;47.506;18.936;2022-09-01T14:25:45;98330.02;;;32.51;21.77
61361;BME280;47232;47.506;18.936;2022-09-01T14:28:12;98331.18;;;32.46;21.49
61361;BME280;47232;47.506;18.936;2022-09-01T14:30:40;98327.82;;;32.42;21.80
61361;BME280;47232;47.506;18.936;2022-09-01T14:33:10;98323.02;;;32.54;21.59
61361;BME280;47232;47.506;18.936;2022-09-01T14:35:38;98323.30;;;32.74;21.60
61361;BME280;47232;47.506;18.936;2022-09-01T14:38:04;98325.72;;;32.97;21.25
61361;BME280;47232;47.506;18.936;2022-09-01T14:40:33;98324.93;;;33.22;20.89
61361;BME280;47232;47.506;18.936;2022-09-01T14:43:00;98324.78;;;33.40;21.12
61361;BME280;47232;47.506;18.936;2022-09-01T14:45:26;98330.73;;;33.78;20.63
61361;BME280;47232;47.506;18.936;2022-09-01T14:47:56;98331.72;;;34.18;19.96
61361;BME280;47232;47.506;18.936;2022-09-01T14:50:26;98339.06;;;34.47;19.61
61361;BME280;47232;47.506;18.936;2022-09-01T14:52:54;98334.46;;;34.82;19.01
61361;BME280;47232;47.506;18.936;2022-09-01T14:55:24;98340.03;;;35.18;18.77
61361;BME280;47232;47.506;18.936;2022-09-01T14:57:51;98344.06;;;35.49;18.43
61361;BME280;47232;47.506;18.936;2022-09-01T15:00:17;98348.48;;;35.75;18.21
61361;BME280;47232;47.506;18.936;2022-09-01T15:02:43;98342.70;;;35.74;17.95
61361;BME280;47232;47.506;18.936;2022-09-01T15:05:10;98340.81;;;35.90;17.91
61361;BME280;47232;47.506;18.936;2022-09-01T15:07:37;98337.55;;;36.08;17.55
61361;BME280;47232;47.506;18.936;2022-09-01T15:10:05;98336.10;;;36.05;17.32
61361;BME280;47232;47.506;18.936;2022-09-01T15:12:31;98333.25;;;36.17;17.39
61361;BME280;47232;47.506;18.936;2022-09-01T15:14:58;98337.70;;;36.66;17.52
61361;BME280;47232;47.506;18.936;2022-09-01T15:17:25;98340.48;;;37.50;16.75
61361;BME280;47232;47.506;18.936;2022-09-01T15:19:51;98345.62;;;38.27;16.24
61361;BME280;47232;47.506;18.936;2022-09-01T15:22:16;98342.04;;;38.87;15.95
61361;BME280;47232;47.506;18.936;2022-09-01T15:24:42;98341.17;;;39.38;15.16
61361;BME280;47232;47.506;18.936;2022-09-01T15:27:08;98340.80;;;39.82;14.89
61361;BME280;47232;47.506;18.936;2022-09-01T15:29:36;98345.78;;;40.46;14.49
61361;BME280;47232;47.506;18.936;2022-09-01T15:32:14;98346.05;;;41.19;13.95
61361;BME280;47232;47.506;18.936;2022-09-01T15:34:41;98345.77;;;41.97;13.64
61361;BME280;47232;47.506;18.936;2022-09-01T15:37:07;98343.58;;;43.06;12.78
61361;BME280;47232;47.506;18.936;2022-09-01T15:39:33;98344.13;;;42.56;12.72
61361;BME280;47232;47.506;18.936;2022-09-01T15:41:58;98342.67;;;41.63;12.92
61361;BME280;47232;47.506;18.936;2022-09-01T15:44:25;98341.17;;;40.62;13.51
61361;BME280;47232;47.506;18.936;2022-09-01T15:46:51;98344.37;;;39.53;14.30
61361;BME280;47232;47.506;18.936;2022-09-01T15:49:17;98343.20;;;38.59;14.80
61361;BME280;47232;47.506;18.936;2022-09-01T15:51:46;98341.34;;;37.65;15.42
61361;BME280;47232;47.506;18.936;2022-09-01T15:54:14;98340.79;;;36.74;16.07
61361;BME280;47232;47.506;18.936;2022-09-01T15:56:40;98344.70;;;35.81;16.91
61361;BME280;47232;47.506;18.936;2022-09-01T15:59:07;98343.71;;;35.06;17.34
61361;BME280;47232;47.506;18.936;2022-09-01T16:01:36;98337.63;;;34.33;18.33
61361;BME280;47232;47.506;18.936;2022-09-01T16:04:04;98336.91;;;33.66;19.08
61361;BME280;47232;47.506;18.936;2022-09-01T16:06:30;98342.38;;;33.01;19.83
61361;BME280;47232;47.506;18.936;2022-09-01T16:08:55;98343.22;;;32.39;20.70
61361;BME280;47232;47.506;18.936;2022-09-01T16:11:22;98348.20;;;31.77;22.36
61361;BME280;47232;47.506;18.936;2022-09-01T16:13:48;98348.44;;;31.25;23.08
61361;BME280;47232;47.506;18.936;2022-09-01T16:24:49;98341.98;;;29.19;26.28
61361;BME280;47232;47.506;18.936;2022-09-01T16:27:26;98335.98;;;28.75;26.25
61361;BME280;47232;47.506;18.936;2022-09-01T16:29:54;98337.50;;;28.36;26.65
61361;BME280;47232;47.506;18.936;2022-09-01T16:32:21;98336.55;;;28.02;27.35
61361;BME280;47232;47.506;18.936;2022-09-01T16:34:49;98338.05;;;27.70;28.35
61361;BME280;47232;47.506;18.936;2022-09-01T16:48:45;98342.71;;;26.32;32.71
61361;BME280;47232;47.506;18.936;2022-09-01T16:51:30;98344.13;;;26.01;33.95
61361;BME280;47232;47.506;18.936;2022-09-01T17:02:40;98344.73;;;25.00;35.07
61361;BME280;47232;47.506;18.936;2022-09-01T17:05:27;98346.44;;;24.71;35.76
61361;BME280;47232;47.506;18.936;2022-09-01T17:08:22;98344.32;;;24.47;36.36
61361;BME280;47232;47.506;18.936;2022-09-01T17:13:45;98344.83;;;24.06;36.81
61361;BME280;47232;47.506;18.936;2022-09-01T17:16:27;98349.61;;;23.90;37.15
61361;BME280;47232;47.506;18.936;2022-09-01T17:18:56;98345.27;;;23.72;37.61
61361;BME280;47232;47.506;18.936;2022-09-01T17:21:30;98347.80;;;23.55;37.62
61361;BME280;47232;47.506;18.936;2022-09-01T17:26:29;98352.02;;;23.18;38.73
61361;BME280;47232;47.506;18.936;2022-09-01T17:29:00;98352.73;;;23.01;39.10
61361;BME280;47232;47.506;18.936;2022-09-01T17:31:44;98349.73;;;22.85;39.36
61361;BME280;47232;47.506;18.936;2022-09-01T17:34:42;98351.34;;;22.66;39.78
61361;BME280;47232;47.506;18.936;2022-09-01T17:37:17;98348.95;;;22.47;40.51
61361;BME280;47232;47.506;18.936;2022-09-01T17:40:11;98360.05;;;22.29;41.23
61361;BME280;47232;47.506;18.936;2022-09-01T17:43:03;98360.02;;;22.08;41.24
61361;BME280;47232;47.506;18.936;2022-09-01T17:48:15;98365.70;;;21.78;41.85
61361;BME280;47232;47.506;18.936;2022-09-01T17:54:00;98374.98;;;21.47;42.62
61361;BME280;47232;47.506;18.936;2022-09-01T17:56:34;98382.74;;;21.29;42.31
61361;BME280;47232;47.506;18.936;2022-09-01T18:10:29;98396.79;;;20.56;42.06
61361;BME280;47232;47.506;18.936;2022-09-01T18:13:03;98399.98;;;20.44;42.18
61361;BME280;47232;47.506;18.936;2022-09-01T18:15:42;98402.12;;;20.32;42.54
61361;BME280;47232;47.506;18.936;2022-09-01T18:18:23;98405.80;;;20.21;42.69
61361;BME280;47232;47.506;18.936;2022-09-01T18:20:53;98409.51;;;20.10;42.71
61361;BME280;47232;47.506;18.936;2022-09-01T18:23:21;98409.23;;;20.01;43.01
61361;BME280;47232;47.506;18.936;2022-09-01T18:25:56;98412.38;;;19.91;43.32
61361;BME280;47232;47.506;18.936;2022-09-01T18:28:23;98412.04;;;19.82;43.75
61361;BME280;47232;47.506;18.936;2022-09-01T18:39:09;98419.45;;;19.51;45.24
61361;BME280;47232;47.506;18.936;2022-09-01T18:47:14;98415.40;;;19.32;46.18
61361;BME280;47232;47.506;18.936;2022-09-01T18:50:03;98417.89;;;19.26;46.53
61361;BME280;47232;47.506;18.936;2022-09-01T18:57:51;98416.52;;;19.10;47.38
61361;BME280;47232;47.506;18.936;2022-09-01T19:00:19;98426.66;;;19.05;47.73
61361;BME280;47232;47.506;18.936;2022-09-01T19:03:01;98428.52;;;19.01;47.94
61361;BME280;47232;47.506;18.936;2022-09-01T19:08:18;98427.45;;;18.92;48.67
61361;BME280;47232;47.506;18.936;2022-09-01T19:11:02;98426.91;;;18.89;48.96
61361;BME280;47232;47.506;18.936;2022-09-01T19:18:53;98428.46;;;18.76;49.97
61361;BME280;47232;47.506;18.936;2022-09-01T19:21:25;98430.84;;;18.73;50.02
61361;BME280;47232;47.506;18.936;2022-09-01T19:24:05;98429.36;;;18.70;50.42
61361;BME280;47232;47.506;18.936;2022-09-01T19:26:48;98429.20;;;18.66;50.61
61361;BME280;47232;47.506;18.936;2022-09-01T19:29:20;98433.59;;;18.63;50.68
61361;BME280;47232;47.506;18.936;2022-09-01T19:31:50;98431.60;;;18.60;50.96
61361;BME280;47232;47.506;18.936;2022-09-01T19:34:40;98435.75;;;18.58;51.23
61361;BME280;47232;47.506;18.936;2022-09-01T19:37:09;98435.70;;;18.55;51.46
61361;BME280;47232;47.506;18.936;2022-09-01T19:39:48;98440.64;;;18.53;51.24
61361;BME280;47232;47.506;18.936;2022-09-01T19:42:49;98437.17;;;18.51;51.35
61361;BME280;47232;47.506;18.936;2022-09-01T19:50:17;98440.66;;;18.42;51.64
61361;BME280;47232;47.506;18.936;2022-09-01T19:53:30;98443.98;;;18.37;51.71
61361;BME280;47232;47.506;18.936;2022-09-01T19:56:19;98447.13;;;18.34;51.85
61361;BME280;47232;47.506;18.936;2022-09-01T19:58:55;98448.71;;;18.32;51.66
61361;BME280;47232;47.506;18.936;2022-09-01T20:01:40;98445.38;;;18.29;51.73
61361;BME280;47232;47.506;18.936;2022-09-01T20:04:55;98450.02;;;18.27;51.69
61361;BME280;47232;47.506;18.936;2022-09-01T20:09:58;98457.99;;;18.21;51.64
61361;BME280;47232;47.506;18.936;2022-09-01T20:12:36;98459.96;;;18.19;51.69
61361;BME280;47232;47.506;18.936;2022-09-01T20:20:38;98463.35;;;18.12;51.38
61361;BME280;47232;47.506;18.936;2022-09-01T20:23:14;98467.71;;;18.09;51.49
61361;BME280;47232;47.506;18.936;2022-09-01T20:25:45;98465.88;;;18.07;51.51
61361;BME280;47232;47.506;18.936;2022-09-01T20:28:23;98468.33;;;18.05;51.54
61361;BME280;47232;47.506;18.936;2022-09-01T20:31:01;98471.75;;;18.05;51.64
61361;BME280;47232;47.506;18.936;2022-09-01T20:33:57;98474.96;;;18.03;51.72
61361;BME280;47232;47.506;18.936;2022-09-01T20:36:34;98475.13;;;18.00;51.83
61361;BME280;47232;47.506;18.936;2022-09-01T20:39:09;98478.58;;;17.97;52.00
61361;BME280;47232;47.506;18.936;2022-09-01T20:42:01;98481.06;;;17.93;51.94
61361;BME280;47232;47.506;18.936;2022-09-01T20:44:38;98478.99;;;17.88;51.96
61361;BME280;47232;47.506;18.936;2022-09-01T20:47:07;98483.27;;;17.85;51.75
61361;BME280;47232;47.506;18.936;2022-09-01T20:49:35;98485.98;;;17.81;51.70
61361;BME280;47232;47.506;18.936;2022-09-01T20:52:37;98489.10;;;17.77;51.73
61361;BME280;47232;47.506;18.936;2022-09-01T20:55:18;98490.01;;;17.74;51.55
61361;BME280;47232;47.506;18.936;2022-09-01T21:00:25;98485.44;;;17.72;50.98
61361;BME280;47232;47.506;18.936;2022-09-01T21:03:31;98488.92;;;17.71;50.45
61361;BME280;47232;47.506;18.936;2022-09-01T21:06:12;98493.80;;;17.73;49.87
61361;BME280;47232;47.506;18.936;2022-09-01T21:08:53;98496.13;;;17.75;49.69
61361;BME280;47232;47.506;18.936;2022-09-01T21:11:38;98503.25;;;17.77;49.56
61361;BME280;47232;47.506;18.936;2022-09-01T21:17:03;98503.57;;;17.80;48.97
61361;BME280;47232;47.506;18.936;2022-09-01T21:24:34;98517.08;;;17.82;48.63
61361;BME280;47232;47.506;18.936;2022-09-01T21:27:04;98517.55;;;17.82;48.31
61361;BME280;47232;47.506;18.936;2022-09-01T21:32:09;98517.22;;;17.85;47.72
61361;BME280;47232;47.506;18.936;2022-09-01T21:34:35;98529.06;;;17.85;47.67
61361;BME280;47232;47.506;18.936;2022-09-01T21:37:00;98527.58;;;17.85;47.54
61361;BME280;47232;47.506;18.936;2022-09-01T21:39:26;98526.52;;;17.84;47.03
61361;BME280;47232;47.506;18.936;2022-09-01T21:41:52;98525.48;;;17.83;46.56
61361;BME280;47232;47.506;18.936;2022-09-01T21:44:17;98525.76;;;17.84;46.52
61361;BME280;47232;47.506;18.936;2022-09-01T21:46:44;98521.58;;;17.85;46.15
61361;BME280;47232;47.506;18.936;2022-09-01T21:49:09;98520.98;;;17.85;46.33
61361;BME280;47232;47.506;18.936;2022-09-01T21:51:42;98521.68;;;17.86;45.87
61361;BME280;47232;47.506;18.936;2022-09-01T21:54:08;98524.25;;;17.85;45.79
61361;BME280;47232;47.506;18.936;2022-09-01T21:56:34;98520.02;;;17.85;45.86
61361;BME280;47232;47.506;18.936;2022-09-01T21:58:59;98517.64;;;17.83;45.68
61361;BME280;47232;47.506;18.936;2022-09-01T22:01:26;98516.26;;;17.80;45.06
61361;BME280;47232;47.506;18.936;2022-09-01T22:03:56;98510.54;;;17.79;45.06
61361;BME280;47232;47.506;18.936;2022-09-01T22:06:22;98507.84;;;17.77;45.04
61361;BME280;47232;47.506;18.936;2022-09-01T22:08:48;98503.78;;;17.76;44.67
61361;BME280;47232;47.506;18.936;2022-09-01T22:11:14;98504.13;;;17.75;44.61
61361;BME280;47232;47.506;18.936;2022-09-01T22:13:41;98499.36;;;17.74;44.83
61361;BME280;47232;47.506;18.936;2022-09-01T22:16:06;98496.67;;;17.73;44.63
61361;BME280;47232;47.506;18.936;2022-09-01T22:18:32;98498.41;;;17.71;44.49
61361;BME280;47232;47.506;18.936;2022-09-01T22:21:06;98500.89;;;17.71;44.60
61361;BME280;47232;47.506;18.936;2022-09-01T22:23:32;98489.98;;;17.69;44.84
61361;BME280;47232;47.506;18.936;2022-09-01T22:25:58;98489.70;;;17.68;44.90
61361;BME280;47232;47.506;18.936;2022-09-01T22:28:24;98490.60;;;17.66;44.93
61361;BME280;47232;47.506;18.936;2022-09-01T22:30:50;98483.29;;;17.65;45.13
61361;BME280;47232;47.506;18.936;2022-09-01T22:33:17;98487.02;;;17.66;45.12
61361;BME280;47232;47.506;18.936;2022-09-01T22:35:45;98482.27;;;17.65;45.21
61361;BME280;47232;47.506;18.936;2022-09-01T22:38:12;98490.16;;;17.64;45.35
61361;BME280;47232;47.506;18.936;2022-09-01T22:40:44;98486.45;;;17.62;45.25
61361;BME280;47232;47.506;18.936;2022-09-01T22:43:10;98484.33;;;17.61;45.12
61361;BME280;47232;47.506;18.936;2022-09-01T22:45:40;98482.83;;;17.60;45.16
61361;BME280;47232;47.506;18.936;2022-09-01T22:48:06;98483.86;;;17.58;44.73
61361;BME280;47232;47.506;18.936;2022-09-01T22:50:31;98483.10;;;17.56;44.64
61361;BME280;47232;47.506;18.936;2022-09-01T22:52:57;98483.33;;;17.54;44.79
61361;BME280;47232;47.506;18.936;2022-09-01T22:55:23;98483.69;;;17.54;44.65
61361;BME280;47232;47.506;18.936;2022-09-01T22:57:48;98484.04;;;17.52;44.95
61361;BME280;47232;47.506;18.936;2022-09-01T23:00:14;98483.00;;;17.51;44.61
61361;BME280;47232;47.506;18.936;2022-09-01T23:02:39;98487.77;;;17.49;44.49
61361;BME280;47232;47.506;18.936;2022-09-01T23:05:06;98485.19;;;17.49;44.41
61361;BME280;47232;47.506;18.936;2022-09-01T23:07:33;98482.30;;;17.48;44.62
61361;BME280;47232;47.506;18.936;2022-09-01T23:09:58;98481.52;;;17.47;44.68
61361;BME280;47232;47.506;18.936;2022-09-01T23:12:24;98475.75;;;17.47;44.65
61361;BME280;47232;47.506;18.936;2022-09-01T23:14:49;98475.89;;;17.46;44.66
61361;BME280;47232;47.506;18.936;2022-09-01T23:17:15;98478.73;;;17.45;44.70
61361;BME280;47232;47.506;18.936;2022-09-01T23:19:40;98479.23;;;17.42;44.39
61361;BME280;47232;47.506;18.936;2022-09-01T23:22:06;98477.48;;;17.41;44.39
61361;BME280;47232;47.506;18.936;2022-09-01T23:24:31;98475.05;;;17.40;44.50
61361;BME280;47232;47.506;18.936;2022-09-01T23:26:57;98479.17;;;17.40;44.57
61361;BME280;47232;47.506;18.936;2022-09-01T23:29:22;98473.98;;;17.38;44.37
61361;BME280;47232;47.506;18.936;2022-09-01T23:31:49;98474.88;;;17.37;44.30
61361;BME280;47232;47.506;18.936;2022-09-01T23:34:14;98474.02;;;17.36;44.31
61361;BME280;47232;47.506;18.936;2022-09-01T23:36:41;98474.86;;;17.36;44.18
61361;BME280;47232;47.506;18.936;2022-09-01T23:39:06;98470.02;;;17.35;44.46
61361;BME280;47232;47.506;18.936;2022-09-01T23:41:33;98475.18;;;17.33;44.48
61361;BME280;47232;47.506;18.936;2022-09-01T23:44:01;98469.61;;;17.31;44.54
61361;BME280;47232;47.506;18.936;2022-09-01T23:46:33;98470.06;;;17.30;44.57
61361;BME280;47232;47.506;18.936;2022-09-01T23:49:02;98466.84;;;17.29;44.25
61361;BME280;47232;47.506;18.936;2022-09-01T23:51:28;98468.02;;;17.26;44.19
61361;BME280;47232;47.506;18.936;2022-09-01T23:53:54;98470.80;;;17.25;44.25
61361;BME280;47232;47.506;18.936;2022-09-01T23:56:22;98470.60;;;17.25;44.03
61361;BME280;47232;47.506;18.936;2022-09-01T23:58:48;98468.87;;;17.23;44.18
